createdAt,value
2022-09-07T00:00:52.004Z,0.00
2022-09-07T00:01:52.010Z,0.00
2022-09-07T00:02:52.076Z,0.00
2022-09-07T00:03:52.123Z,0.00
2022-09-07T00:04:52.014Z,0.00
2022-09-07T00:05:52.018Z,0.00
2022-09-07T00:06:52.020Z,0.00
2022-09-07T00:07:52.025Z,0.00
2022-09-07T00:08:52.024Z,0.00
2022-09-07T00:09:52.026Z,0.00
2022-09-07T00:10:52.026Z,0.00
2022-09-07T00:11:52.028Z,0.00
2022-09-07T00:12:52.031Z,0.00
2022-09-07T00:13:52.036Z,0.00
2022-09-07T00:14:52.437Z,0.00
2022-09-07T00:15:52.147Z,0.00
2022-09-07T00:16:52.041Z,0.00
2022-09-07T00:17:52.046Z,0.00
2022-09-07T00:18:52.048Z,0.00
2022-09-07T00:19:52.051Z,0.00
2022-09-07T00:20:52.049Z,0.00
2022-09-07T00:21:52.054Z,0.00
2022-09-07T00:22:52.054Z,0.00
2022-09-07T00:23:52.056Z,0.00
2022-09-07T00:24:52.059Z,0.00
2022-09-07T00:25:54.060Z,0.00
2022-09-07T00:26:52.064Z,0.00
2022-09-07T00:27:52.066Z,0.00
2022-09-07T00:28:52.066Z,0.00
2022-09-07T00:29:52.071Z,0.00
2022-09-07T00:30:52.085Z,0.00
2022-09-07T00:31:52.177Z,0.00
2022-09-07T00:32:52.079Z,0.00
2022-09-07T00:33:52.085Z,0.00
2022-09-07T00:34:52.081Z,0.00
2022-09-07T00:35:52.085Z,0.00
2022-09-07T00:36:52.089Z,0.00
2022-09-07T00:37:52.088Z,0.00
2022-09-07T00:38:52.092Z,0.00
2022-09-07T00:39:52.165Z,0.00
2022-09-07T00:40:52.097Z,0.00
2022-09-07T00:41:52.099Z,0.00
2022-09-07T00:42:52.104Z,0.00
2022-09-07T00:43:52.104Z,0.00
2022-09-07T00:44:52.105Z,0.00
2022-09-07T00:45:52.108Z,0.00
2022-09-07T00:46:52.191Z,0.00
2022-09-07T00:47:52.112Z,0.00
2022-09-07T00:48:52.114Z,0.00
2022-09-07T00:49:52.116Z,0.00
2022-09-07T00:50:52.121Z,0.00
2022-09-07T00:51:52.122Z,0.00
2022-09-07T00:52:52.126Z,0.00
2022-09-07T00:53:52.128Z,0.00
2022-09-07T00:54:52.133Z,0.00
2022-09-07T00:55:52.147Z,0.00
2022-09-07T00:56:52.143Z,0.00
2022-09-07T00:57:52.140Z,0.00
2022-09-07T00:58:52.144Z,0.00
2022-09-07T00:59:52.140Z,0.00
2022-09-07T01:00:52.160Z,0.00
2022-09-07T01:01:52.280Z,0.00
2022-09-07T01:02:52.336Z,0.00
2022-09-07T01:03:52.150Z,0.00
2022-09-07T01:04:52.177Z,0.00
2022-09-07T01:05:52.156Z,0.00
2022-09-07T01:06:52.163Z,0.00
2022-09-07T01:07:52.159Z,0.00
2022-09-07T01:08:52.165Z,0.00
2022-09-07T01:09:52.163Z,0.00
2022-09-07T01:10:52.172Z,0.00
2022-09-07T01:11:52.168Z,0.00
2022-09-07T01:12:52.173Z,0.00
2022-09-07T01:13:52.173Z,0.00
2022-09-07T01:14:52.376Z,0.00
2022-09-07T01:15:52.205Z,0.00
2022-09-07T01:16:52.182Z,0.00
2022-09-07T01:17:52.193Z,0.00
2022-09-07T01:18:52.188Z,0.00
2022-09-07T01:19:52.189Z,0.00
2022-09-07T01:20:52.191Z,0.00
2022-09-07T01:21:52.193Z,0.00
2022-09-07T01:22:52.197Z,0.00
2022-09-07T01:23:52.196Z,0.00
2022-09-07T01:24:52.201Z,0.00
2022-09-07T01:25:52.203Z,0.00
2022-09-07T01:26:52.208Z,0.00
2022-09-07T01:27:52.204Z,0.00
2022-09-07T01:28:52.209Z,0.00
2022-09-07T01:29:52.262Z,0.00
2022-09-07T01:30:52.262Z,0.00
2022-09-07T01:31:52.221Z,0.00
2022-09-07T01:32:52.220Z,0.00
2022-09-07T01:33:52.219Z,0.00
2022-09-07T01:34:52.224Z,0.00
2022-09-07T01:35:52.222Z,0.00
2022-09-07T01:36:52.237Z,0.00
2022-09-07T01:37:56.791Z,0.00
2022-09-07T01:38:52.234Z,0.00
2022-09-07T01:39:52.290Z,0.00
2022-09-07T01:40:52.239Z,0.00
2022-09-07T01:41:52.237Z,0.00
2022-09-07T01:42:52.246Z,0.00
2022-09-07T01:43:52.243Z,0.00
2022-09-07T01:44:52.244Z,0.00
2022-09-07T01:45:52.250Z,0.00
2022-09-07T01:46:52.252Z,0.00
2022-09-07T01:47:52.252Z,0.00
2022-09-07T01:48:52.256Z,0.00
2022-09-07T01:49:52.256Z,0.00
2022-09-07T01:50:52.260Z,0.00
2022-09-07T01:51:52.258Z,0.00
2022-09-07T01:52:52.267Z,0.00
2022-09-07T01:53:52.264Z,0.00
2022-09-07T01:54:52.269Z,0.00
2022-09-07T01:55:52.269Z,0.00
2022-09-07T01:56:52.272Z,0.00
2022-09-07T01:57:52.275Z,0.00
2022-09-07T01:58:52.278Z,0.00
2022-09-07T01:59:52.280Z,0.00
2022-09-07T02:00:52.281Z,0.00
2022-09-07T02:01:52.365Z,0.00
2022-09-07T02:02:52.430Z,0.00
2022-09-07T02:03:52.285Z,0.00
2022-09-07T02:04:52.292Z,0.00
2022-09-07T02:05:52.292Z,0.00
2022-09-07T02:06:52.296Z,0.00
2022-09-07T02:07:52.297Z,0.00
2022-09-07T02:08:52.299Z,0.00
2022-09-07T02:09:52.303Z,0.00
2022-09-07T02:10:52.309Z,0.00
2022-09-07T02:11:52.308Z,0.00
2022-09-07T02:12:52.308Z,0.00
2022-09-07T02:13:52.309Z,0.00
2022-09-07T02:14:52.932Z,0.00
2022-09-07T02:15:52.349Z,0.00
2022-09-07T02:16:52.317Z,0.00
2022-09-07T02:17:52.318Z,0.00
2022-09-07T02:18:52.323Z,0.00
2022-09-07T02:19:52.322Z,0.00
2022-09-07T02:20:52.327Z,0.00
2022-09-07T02:21:52.327Z,0.00
2022-09-07T02:22:52.330Z,0.00
2022-09-07T02:23:52.335Z,0.00
2022-09-07T02:24:52.337Z,0.00
2022-09-07T02:25:52.336Z,0.00
2022-09-07T02:26:52.341Z,0.00
2022-09-07T02:27:52.339Z,0.00
2022-09-07T02:28:52.345Z,0.00
2022-09-07T02:29:52.345Z,0.00
2022-09-07T02:30:52.377Z,0.00
2022-09-07T02:31:52.357Z,0.00
2022-09-07T02:32:52.357Z,0.00
2022-09-07T02:33:52.353Z,0.00
2022-09-07T02:34:52.358Z,0.00
2022-09-07T02:35:52.360Z,0.00
2022-09-07T02:36:52.364Z,0.00
2022-09-07T02:37:52.365Z,0.00
2022-09-07T02:38:52.366Z,0.00
2022-09-07T02:39:52.438Z,0.00
2022-09-07T02:40:52.371Z,0.00
2022-09-07T02:41:52.371Z,0.00
2022-09-07T02:42:52.378Z,0.00
2022-09-07T02:43:52.376Z,0.00
2022-09-07T02:44:52.380Z,0.00
2022-09-07T02:45:52.443Z,0.00
2022-09-07T02:46:52.387Z,0.00
2022-09-07T02:47:52.388Z,0.00
2022-09-07T02:48:52.388Z,0.00
2022-09-07T02:49:52.393Z,0.00
2022-09-07T02:50:52.396Z,0.00
2022-09-07T02:51:52.394Z,0.00
2022-09-07T02:52:52.403Z,0.00
2022-09-07T02:53:52.399Z,0.00
2022-09-07T02:54:52.403Z,0.00
2022-09-07T02:55:52.403Z,0.00
2022-09-07T02:56:52.408Z,0.00
2022-09-07T02:57:52.407Z,0.00
2022-09-07T02:58:52.412Z,0.00
2022-09-07T02:59:52.414Z,0.00
2022-09-07T03:00:52.417Z,0.00
2022-09-07T03:01:52.447Z,0.00
2022-09-07T03:02:52.493Z,0.00
2022-09-07T03:03:52.421Z,0.00
2022-09-07T03:04:52.427Z,0.00
2022-09-07T03:05:52.426Z,0.00
2022-09-07T03:06:52.443Z,0.00
2022-09-07T03:07:52.437Z,0.00
2022-09-07T03:08:52.436Z,0.00
2022-09-07T03:09:52.439Z,0.00
2022-09-07T03:10:52.440Z,0.00
2022-09-07T03:11:52.442Z,0.00
2022-09-07T03:12:52.443Z,0.00
2022-09-07T03:13:52.444Z,0.00
2022-09-07T03:14:52.598Z,0.00
2022-09-07T03:15:55.703Z,0.00
2022-09-07T03:16:52.451Z,0.00
2022-09-07T03:17:52.454Z,0.00
2022-09-07T03:18:52.461Z,0.00
2022-09-07T03:19:52.456Z,0.00
2022-09-07T03:20:52.461Z,0.00
2022-09-07T03:21:52.462Z,0.00
2022-09-07T03:22:52.472Z,0.00
2022-09-07T03:23:52.471Z,0.00
2022-09-07T03:24:52.470Z,0.00
2022-09-07T03:25:52.472Z,0.00
2022-09-07T03:26:52.474Z,0.00
2022-09-07T03:27:52.503Z,0.00
2022-09-07T03:28:52.484Z,0.00
2022-09-07T03:29:52.482Z,0.00
2022-09-07T03:30:52.545Z,0.00
2022-09-07T03:31:52.483Z,0.00
2022-09-07T03:32:52.492Z,0.00
2022-09-07T03:33:52.494Z,0.00
2022-09-07T03:34:52.504Z,0.00
2022-09-07T03:35:52.495Z,0.00
2022-09-07T03:36:52.495Z,0.00
2022-09-07T03:37:52.500Z,0.00
2022-09-07T03:38:52.505Z,0.00
2022-09-07T03:39:52.528Z,0.00
2022-09-07T03:40:52.505Z,0.00
2022-09-07T03:41:52.505Z,0.00
2022-09-07T03:42:52.513Z,0.00
2022-09-07T03:43:52.509Z,0.00
2022-09-07T03:44:52.519Z,0.00
2022-09-07T03:45:52.542Z,0.00
2022-09-07T03:46:52.517Z,0.00
2022-09-07T03:47:52.527Z,0.00
2022-09-07T03:48:52.524Z,0.00
2022-09-07T03:49:52.521Z,0.00
2022-09-07T03:50:52.527Z,0.00
2022-09-07T03:51:52.528Z,0.00
2022-09-07T03:52:52.532Z,0.00
2022-09-07T03:53:52.541Z,0.00
2022-09-07T03:54:52.538Z,0.00
2022-09-07T03:55:52.541Z,0.00
2022-09-07T03:56:52.539Z,0.00
2022-09-07T03:57:52.538Z,0.00
2022-09-07T03:58:52.542Z,0.00
2022-09-07T03:59:52.542Z,0.00
2022-09-07T04:00:52.547Z,0.00
2022-09-07T04:01:52.568Z,0.00
2022-09-07T04:02:52.635Z,0.00
2022-09-07T04:03:52.555Z,0.00
2022-09-07T04:04:52.555Z,0.00
2022-09-07T04:05:52.554Z,0.00
2022-09-07T04:06:52.560Z,0.00
2022-09-07T04:07:52.569Z,0.00
2022-09-07T04:08:52.564Z,0.00
2022-09-07T04:09:52.564Z,0.00
2022-09-07T04:10:52.568Z,0.00
2022-09-07T04:11:52.583Z,0.00
2022-09-07T04:12:52.571Z,0.00
2022-09-07T04:13:52.572Z,0.00
2022-09-07T04:14:52.826Z,0.00
2022-09-07T04:15:53.990Z,0.00
2022-09-07T04:16:52.633Z,0.00
2022-09-07T04:17:52.582Z,0.00
2022-09-07T04:18:52.592Z,0.00
2022-09-07T04:19:52.589Z,0.00
2022-09-07T04:20:52.586Z,0.00
2022-09-07T04:21:52.588Z,0.00
2022-09-07T04:22:54.413Z,0.00
2022-09-07T04:23:52.594Z,0.00
2022-09-07T04:24:52.598Z,0.00
2022-09-07T04:25:52.602Z,0.00
2022-09-07T04:26:52.603Z,0.00
2022-09-07T04:27:52.601Z,0.00
2022-09-07T04:28:52.607Z,0.00
2022-09-07T04:29:52.607Z,0.00
2022-09-07T04:30:52.666Z,0.00
2022-09-07T04:31:52.617Z,0.00
2022-09-07T04:32:52.613Z,0.00
2022-09-07T04:33:52.612Z,0.00
2022-09-07T04:34:52.618Z,0.00
2022-09-07T04:35:52.615Z,0.00
2022-09-07T04:36:52.624Z,0.00
2022-09-07T04:37:52.619Z,0.00
2022-09-07T04:38:52.624Z,0.00
2022-09-07T04:39:52.688Z,0.00
2022-09-07T04:40:52.626Z,4.00
2022-09-07T04:41:52.628Z,4.00
2022-09-07T04:42:52.639Z,0.00
2022-09-07T04:43:52.631Z,0.00
2022-09-07T04:44:52.638Z,0.00
2022-09-07T04:45:52.655Z,4.00
2022-09-07T04:46:52.642Z,0.00
2022-09-07T04:47:52.648Z,4.00
2022-09-07T04:48:52.645Z,4.00
2022-09-07T04:49:52.670Z,4.00
2022-09-07T04:50:52.651Z,4.00
2022-09-07T04:51:52.649Z,4.00
2022-09-07T04:52:52.652Z,4.00
2022-09-07T04:53:52.658Z,8.00
2022-09-07T04:54:52.659Z,4.00
2022-09-07T04:55:52.657Z,8.00
2022-09-07T04:56:52.659Z,8.00
2022-09-07T04:57:52.660Z,8.00
2022-09-07T04:58:52.662Z,8.00
2022-09-07T04:59:52.666Z,12.00
2022-09-07T05:00:52.712Z,12.00
2022-09-07T05:01:52.760Z,12.00
2022-09-07T05:02:52.669Z,12.00
2022-09-07T05:03:52.674Z,16.00
2022-09-07T05:04:52.673Z,12.00
2022-09-07T05:05:52.677Z,12.00
2022-09-07T05:06:52.677Z,16.00
2022-09-07T05:07:52.679Z,16.00
2022-09-07T05:08:52.684Z,20.00
2022-09-07T05:09:52.684Z,20.00
2022-09-07T05:10:52.685Z,24.00
2022-09-07T05:11:52.691Z,24.00
2022-09-07T05:12:52.692Z,28.00
2022-09-07T05:13:52.710Z,28.00
2022-09-07T05:14:53.048Z,32.00
2022-09-07T05:15:52.700Z,32.00
2022-09-07T05:16:52.752Z,32.00
2022-09-07T05:17:52.700Z,36.00
2022-09-07T05:18:52.700Z,36.00
2022-09-07T05:19:52.701Z,36.00
2022-09-07T05:20:52.703Z,40.00
2022-09-07T05:21:52.706Z,40.00
2022-09-07T05:22:52.707Z,44.00
2022-09-07T05:23:52.710Z,48.00
2022-09-07T05:24:52.712Z,48.00
2022-09-07T05:25:52.714Z,44.00
2022-09-07T05:26:52.715Z,48.00
2022-09-07T05:27:52.719Z,48.00
2022-09-07T05:28:52.943Z,48.00
2022-09-07T05:31:52.727Z,56.00
2022-09-07T05:32:52.726Z,56.00
2022-09-07T05:34:53.121Z,60.00
2022-09-07T05:35:52.730Z,60.00
2022-09-07T05:36:52.735Z,64.00
2022-09-07T05:37:52.740Z,64.00
2022-09-07T05:38:52.737Z,68.00
2022-09-07T05:39:52.846Z,72.00
2022-09-07T05:40:52.739Z,72.00
2022-09-07T05:41:52.742Z,72.00
2022-09-07T05:42:52.747Z,72.00
2022-09-07T05:44:52.748Z,84.00
2022-09-07T05:45:52.798Z,96.00
2022-09-07T05:46:52.757Z,112.00
2022-09-07T05:47:52.756Z,116.00
2022-09-07T05:48:52.755Z,108.00
2022-09-07T05:49:55.236Z,104.00
2022-09-07T05:50:52.761Z,100.00
2022-09-07T05:51:52.761Z,100.00
2022-09-07T05:52:52.762Z,100.00
2022-09-07T05:53:52.765Z,100.00
2022-09-07T05:54:56.628Z,108.00
2022-09-07T05:55:52.776Z,112.00
2022-09-07T05:56:52.772Z,120.00
2022-09-07T05:57:52.773Z,120.00
2022-09-07T05:58:52.813Z,120.00
2022-09-07T05:59:52.782Z,128.00
2022-09-07T06:00:52.790Z,136.00
2022-09-07T06:01:52.908Z,152.00
2022-09-07T06:02:52.892Z,152.00
2022-09-07T06:03:52.784Z,168.00
2022-09-07T06:04:52.783Z,176.00
2022-09-07T06:05:52.790Z,176.00
2022-09-07T06:07:19.990Z,192.00
2022-09-07T06:07:52.789Z,212.00
2022-09-07T06:08:52.801Z,220.00
2022-09-07T06:10:52.797Z,264.00
2022-09-07T06:11:52.794Z,316.00
2022-09-07T06:12:52.799Z,300.00
2022-09-07T06:13:52.800Z,260.00
2022-09-07T06:14:53.288Z,248.00
2022-09-07T06:15:52.823Z,252.00
2022-09-07T06:16:52.838Z,256.00
2022-09-07T06:17:52.807Z,240.00
2022-09-07T06:18:52.808Z,276.00
2022-09-07T06:19:52.816Z,300.00
2022-09-07T06:20:52.811Z,348.00
2022-09-07T06:21:52.818Z,316.00
2022-09-07T06:22:52.815Z,344.00
2022-09-07T06:23:52.818Z,408.00
2022-09-07T06:24:52.819Z,416.00
2022-09-07T06:25:52.823Z,368.00
2022-09-07T06:26:52.824Z,472.00
2022-09-07T06:27:52.824Z,488.00
2022-09-07T06:28:57.176Z,388.00
2022-09-07T06:29:52.831Z,412.00
2022-09-07T06:30:52.830Z,432.00
2022-09-07T06:32:52.835Z,444.00
2022-09-07T06:33:52.835Z,364.00
2022-09-07T06:34:52.839Z,356.00
2022-09-07T06:35:52.851Z,440.00
2022-09-07T06:36:52.841Z,452.00
2022-09-07T06:37:52.844Z,488.00
2022-09-07T06:38:52.843Z,456.00
2022-09-07T06:39:52.885Z,340.00
2022-09-07T06:42:00.083Z,244.00
2022-09-07T06:42:52.859Z,212.00
2022-09-07T06:43:52.854Z,144.00
2022-09-07T06:44:52.858Z,132.00
2022-09-07T06:45:53.295Z,160.00
2022-09-07T06:47:08.254Z,224.00
2022-09-07T06:47:52.864Z,244.00
2022-09-07T06:48:52.866Z,308.00
2022-09-07T06:49:52.867Z,308.00
2022-09-07T06:50:52.866Z,284.00
2022-09-07T06:51:52.867Z,328.00
2022-09-07T06:53:53.309Z,292.00
2022-09-07T06:55:52.876Z,248.00
2022-09-07T06:56:52.879Z,320.00
2022-09-07T06:57:52.887Z,264.00
2022-09-07T06:58:52.883Z,172.00
2022-09-07T06:59:52.888Z,332.00
2022-09-07T07:00:52.939Z,280.00
2022-09-07T07:01:52.890Z,272.00
2022-09-07T07:02:52.960Z,336.00
2022-09-07T07:03:52.890Z,344.00
2022-09-07T07:04:52.894Z,268.00
2022-09-07T07:05:52.902Z,276.00
2022-09-07T07:06:52.897Z,292.00
2022-09-07T07:07:52.902Z,272.00
2022-09-07T07:08:52.900Z,280.00
2022-09-07T07:09:52.903Z,252.00
2022-09-07T07:10:52.908Z,280.00
2022-09-07T07:11:52.905Z,256.00
2022-09-07T07:12:52.914Z,256.00
2022-09-07T07:13:52.919Z,268.00
2022-09-07T07:14:52.912Z,312.00
2022-09-07T07:15:52.918Z,272.00
2022-09-07T07:16:52.923Z,280.00
2022-09-07T07:17:58.385Z,312.00
2022-09-07T07:18:52.926Z,232.00
2022-09-07T07:19:53.291Z,256.00
2022-09-07T07:20:52.925Z,272.00
2022-09-07T07:22:23.791Z,240.00
2022-09-07T07:22:52.930Z,236.00
2022-09-07T07:23:52.933Z,220.00
2022-09-07T07:24:52.935Z,212.00
2022-09-07T07:25:52.933Z,236.00
2022-09-07T07:26:52.933Z,280.00
2022-09-07T07:27:52.967Z,340.00
2022-09-07T07:29:00.320Z,400.00
2022-09-07T07:29:52.942Z,480.00
2022-09-07T07:30:52.959Z,540.00
2022-09-07T07:31:52.943Z,464.00
2022-09-07T07:32:53.027Z,380.00
2022-09-07T07:33:53.105Z,320.00
2022-09-07T07:34:52.949Z,272.00
2022-09-07T07:35:52.954Z,336.00
2022-09-07T07:36:52.957Z,468.00
2022-09-07T07:37:53.283Z,408.00
2022-09-07T07:39:00.984Z,440.00
2022-09-07T07:42:52.967Z,644.00
2022-09-07T07:43:52.969Z,696.00
2022-09-07T07:46:53.015Z,4964.00
2022-09-07T07:47:52.977Z,2292.00
2022-09-07T07:48:52.981Z,2112.00
2022-09-07T07:50:30.608Z,1816.00
2022-09-07T07:50:52.986Z,3116.00
2022-09-07T07:53:41.355Z,1080.00
2022-09-07T07:53:53.000Z,684.00
2022-09-07T07:54:52.994Z,684.00
2022-09-07T07:55:52.991Z,744.00
2022-09-07T07:56:52.993Z,2048.00
2022-09-07T07:57:53.003Z,752.00
2022-09-07T07:58:53.004Z,712.00
2022-09-07T07:59:53.004Z,592.00
2022-09-07T08:00:55.484Z,536.00
2022-09-07T08:01:53.129Z,588.00
2022-09-07T08:02:53.052Z,540.00
2022-09-07T08:03:53.006Z,672.00
2022-09-07T08:04:53.009Z,836.00
2022-09-07T08:05:53.033Z,704.00
2022-09-07T08:06:53.015Z,772.00
2022-09-07T08:07:53.020Z,716.00
2022-09-07T08:08:53.037Z,660.00
2022-09-07T08:09:53.025Z,732.00
2022-09-07T08:10:53.029Z,608.00
2022-09-07T08:11:53.032Z,576.00
2022-09-07T08:12:53.026Z,796.00
2022-09-07T08:13:53.031Z,900.00
2022-09-07T08:14:53.030Z,1272.00
2022-09-07T08:15:53.128Z,2896.00
2022-09-07T08:16:53.036Z,4244.00
2022-09-07T08:17:53.040Z,2200.00
2022-09-07T08:18:53.040Z,2172.00
2022-09-07T08:19:53.043Z,2440.00
2022-09-07T08:20:53.043Z,1732.00
2022-09-07T08:21:53.065Z,1744.00
2022-09-07T08:22:53.050Z,1752.00
2022-09-07T08:23:53.051Z,1728.00
2022-09-07T08:24:53.204Z,3584.00
2022-09-07T08:25:53.060Z,2032.00
2022-09-07T08:26:53.062Z,3756.00
2022-09-07T08:27:53.065Z,4284.00
2022-09-07T08:28:53.061Z,1580.00
2022-09-07T08:29:53.067Z,1560.00
2022-09-07T08:30:53.066Z,1500.00
2022-09-07T08:31:53.119Z,1368.00
2022-09-07T08:32:53.073Z,1448.00
2022-09-07T08:33:53.075Z,1860.00
2022-09-07T08:34:53.082Z,1644.00
2022-09-07T08:35:53.078Z,1768.00
2022-09-07T08:36:53.080Z,1780.00
2022-09-07T08:37:53.104Z,1764.00
2022-09-07T08:38:53.090Z,1540.00
2022-09-07T08:39:53.177Z,1160.00
2022-09-07T08:40:53.088Z,960.00
2022-09-07T08:41:53.094Z,860.00
2022-09-07T08:42:53.093Z,836.00
2022-09-07T08:43:53.100Z,792.00
2022-09-07T08:44:53.098Z,848.00
2022-09-07T08:45:53.102Z,852.00
2022-09-07T08:46:53.155Z,1052.00
2022-09-07T08:47:53.108Z,1128.00
2022-09-07T08:48:53.107Z,964.00
2022-09-07T08:49:53.112Z,832.00
2022-09-07T08:50:53.114Z,736.00
2022-09-07T08:51:53.116Z,652.00
2022-09-07T08:52:53.117Z,788.00
2022-09-07T08:53:53.148Z,652.00
2022-09-07T08:54:53.124Z,768.00
2022-09-07T08:55:53.124Z,1020.00
2022-09-07T08:57:53.131Z,852.00
2022-09-07T08:58:53.134Z,540.00
2022-09-07T08:59:53.132Z,504.00
2022-09-07T09:01:30.566Z,444.00
2022-09-07T09:05:53.259Z,1024.00
2022-09-07T09:06:53.223Z,1084.00
2022-09-07T09:07:53.149Z,868.00
2022-09-07T09:08:53.153Z,684.00
2022-09-07T09:09:53.171Z,864.00
2022-09-07T09:10:53.161Z,936.00
2022-09-07T09:11:53.158Z,932.00
2022-09-07T09:12:53.160Z,652.00
2022-09-07T09:13:53.162Z,584.00
2022-09-07T09:14:53.165Z,628.00
2022-09-07T09:15:53.268Z,608.00
2022-09-07T09:16:53.167Z,660.00
2022-09-07T09:17:53.172Z,864.00
2022-09-07T09:18:53.174Z,972.00
2022-09-07T09:19:53.174Z,1072.00
2022-09-07T09:20:53.179Z,720.00
2022-09-07T09:21:53.178Z,752.00
2022-09-07T09:22:53.186Z,952.00
2022-09-07T09:23:53.185Z,824.00
2022-09-07T09:24:53.543Z,684.00
2022-09-07T09:25:53.213Z,684.00
2022-09-07T09:26:53.251Z,512.00
2022-09-07T09:27:53.194Z,532.00
2022-09-07T09:28:53.196Z,548.00
2022-09-07T09:29:53.195Z,424.00
2022-09-07T09:30:53.264Z,620.00
2022-09-07T09:31:53.200Z,576.00
2022-09-07T09:32:53.206Z,616.00
2022-09-07T09:33:53.206Z,440.00
2022-09-07T09:34:53.208Z,360.00
2022-09-07T09:35:53.212Z,628.00
2022-09-07T09:36:53.213Z,632.00
2022-09-07T09:37:53.215Z,660.00
2022-09-07T09:38:53.219Z,860.00
2022-09-07T09:39:55.441Z,964.00
2022-09-07T09:40:53.222Z,816.00
2022-09-07T09:41:53.237Z,660.00
2022-09-07T09:42:53.231Z,460.00
2022-09-07T09:43:53.321Z,412.00
2022-09-07T09:44:53.230Z,376.00
2022-09-07T09:47:53.292Z,400.00
2022-09-07T09:48:53.237Z,412.00
2022-09-07T09:49:53.239Z,428.00
2022-09-07T09:52:53.247Z,496.00
2022-09-07T09:53:53.248Z,708.00
2022-09-07T09:54:53.251Z,748.00
2022-09-07T09:55:53.255Z,848.00
2022-09-07T09:56:53.260Z,792.00
2022-09-07T09:59:57.655Z,412.00
2022-09-07T10:04:53.288Z,360.00
2022-09-07T10:05:53.277Z,368.00
2022-09-07T10:06:53.280Z,400.00
2022-09-07T10:07:53.284Z,536.00
2022-09-07T10:08:53.282Z,716.00
2022-09-07T10:09:53.284Z,860.00
2022-09-07T10:10:53.291Z,812.00
2022-09-07T10:12:08.969Z,856.00
2022-09-07T10:12:53.301Z,864.00
2022-09-07T10:13:53.313Z,816.00
2022-09-07T10:14:53.301Z,732.00
2022-09-07T10:15:53.488Z,712.00
2022-09-07T10:16:53.303Z,592.00
2022-09-07T10:17:53.302Z,512.00
2022-09-07T10:18:53.307Z,436.00
2022-09-07T10:19:53.307Z,424.00
2022-09-07T10:20:53.312Z,408.00
2022-09-07T10:21:53.316Z,396.00
2022-09-07T10:22:53.325Z,392.00
2022-09-07T10:23:53.324Z,364.00
2022-09-07T10:24:53.322Z,456.00
2022-09-07T10:25:53.325Z,436.00
2022-09-07T10:26:53.331Z,496.00
2022-09-07T10:27:53.327Z,412.00
2022-09-07T10:29:09.368Z,424.00
2022-09-07T10:29:53.348Z,404.00
2022-09-07T10:30:53.371Z,396.00
2022-09-07T10:31:53.336Z,412.00
2022-09-07T10:32:53.341Z,408.00
2022-09-07T10:34:53.360Z,496.00
2022-09-07T10:35:53.344Z,600.00
2022-09-07T10:36:53.355Z,624.00
2022-09-07T10:37:53.350Z,572.00
2022-09-07T10:38:53.355Z,676.00
2022-09-07T10:39:56.963Z,604.00
2022-09-07T10:40:53.362Z,472.00
2022-09-07T10:41:53.360Z,528.00
2022-09-07T10:43:23.455Z,600.00
2022-09-07T10:43:53.364Z,652.00
2022-09-07T10:44:53.369Z,812.00
2022-09-07T10:45:53.478Z,796.00
2022-09-07T10:46:57.014Z,612.00
2022-09-07T10:47:53.378Z,452.00
2022-09-07T10:48:53.379Z,472.00
2022-09-07T10:50:53.382Z,476.00
2022-09-07T10:51:53.386Z,504.00
2022-09-07T10:52:53.388Z,540.00
2022-09-07T10:54:53.400Z,412.00
2022-09-07T10:55:53.394Z,460.00
2022-09-07T10:56:53.399Z,408.00
2022-09-07T10:57:53.991Z,436.00
2022-09-07T10:59:08.880Z,456.00
2022-09-07T11:00:09.477Z,544.00
2022-09-07T11:00:53.406Z,576.00
2022-09-07T11:01:53.514Z,496.00
2022-09-07T11:03:53.485Z,524.00
2022-09-07T11:04:53.419Z,476.00
2022-09-07T11:05:53.426Z,420.00
2022-09-07T11:06:53.422Z,384.00
2022-09-07T11:07:53.421Z,380.00
2022-09-07T11:09:53.426Z,672.00
2022-09-07T11:10:53.433Z,520.00
2022-09-07T11:12:01.463Z,476.00
2022-09-07T11:12:53.433Z,552.00
2022-09-07T11:14:11.984Z,480.00
2022-09-07T11:14:53.506Z,480.00
2022-09-07T11:15:53.494Z,556.00
2022-09-07T11:16:53.535Z,548.00
2022-09-07T11:17:53.509Z,572.00
2022-09-07T11:19:35.049Z,424.00
2022-09-07T11:19:53.450Z,332.00
2022-09-07T11:20:53.457Z,320.00
2022-09-07T11:21:56.756Z,296.00
2022-09-07T11:22:53.458Z,344.00
2022-09-07T11:23:53.459Z,272.00
2022-09-07T11:25:53.466Z,276.00
2022-09-07T11:26:53.470Z,296.00
2022-09-07T11:27:53.468Z,476.00
2022-09-07T11:29:53.474Z,460.00
2022-09-07T11:30:57.854Z,476.00
2022-09-07T11:31:53.475Z,428.00
2022-09-07T11:32:53.479Z,584.00
2022-09-07T11:34:53.488Z,436.00
2022-09-07T11:35:53.490Z,364.00
2022-09-07T11:36:53.490Z,352.00
2022-09-07T11:37:53.493Z,312.00
2022-09-07T11:38:53.497Z,296.00
2022-09-07T11:39:53.563Z,300.00
2022-09-07T11:40:53.501Z,328.00
2022-09-07T11:41:53.506Z,316.00
2022-09-07T11:42:53.510Z,272.00
2022-09-07T11:43:53.509Z,300.00
2022-09-07T11:44:53.513Z,324.00
2022-09-07T11:45:53.546Z,292.00
2022-09-07T11:46:53.520Z,244.00
2022-09-07T11:47:53.519Z,216.00
2022-09-07T11:48:53.522Z,220.00
2022-09-07T11:49:57.269Z,316.00
2022-09-07T11:50:53.529Z,428.00
2022-09-07T11:51:54.015Z,408.00
2022-09-07T11:52:53.945Z,420.00
2022-09-07T11:53:53.535Z,356.00
2022-09-07T11:54:53.554Z,344.00
2022-09-07T11:55:53.561Z,400.00
2022-09-07T11:56:53.548Z,432.00
2022-09-07T11:57:55.598Z,392.00
2022-09-07T11:58:53.548Z,448.00
2022-09-07T11:59:53.554Z,404.00
2022-09-07T12:00:53.557Z,408.00
2022-09-07T12:01:53.554Z,424.00
2022-09-07T12:02:59.887Z,384.00
2022-09-07T12:03:53.667Z,372.00
2022-09-07T12:04:56.385Z,368.00
2022-09-07T12:05:53.586Z,376.00
2022-09-07T12:06:53.571Z,468.00
2022-09-07T12:07:53.572Z,412.00
2022-09-07T12:08:53.572Z,396.00
2022-09-07T12:09:53.577Z,376.00
2022-09-07T12:10:53.580Z,384.00
2022-09-07T12:11:53.578Z,384.00
2022-09-07T12:12:53.584Z,400.00
2022-09-07T12:13:53.585Z,420.00
2022-09-07T12:14:53.590Z,404.00
2022-09-07T12:15:53.649Z,404.00
2022-09-07T12:16:53.595Z,396.00
2022-09-07T12:17:53.593Z,344.00
2022-09-07T12:18:53.598Z,272.00
2022-09-07T12:19:53.598Z,248.00
2022-09-07T12:20:53.604Z,252.00
2022-09-07T12:21:53.646Z,248.00
2022-09-07T12:22:53.611Z,264.00
2022-09-07T12:23:53.610Z,328.00
2022-09-07T12:24:53.812Z,340.00
2022-09-07T12:25:53.618Z,328.00
2022-09-07T12:26:53.622Z,340.00
2022-09-07T12:27:53.656Z,368.00
2022-09-07T12:28:53.624Z,392.00
2022-09-07T12:29:53.625Z,348.00
2022-09-07T12:30:53.666Z,384.00
2022-09-07T12:31:58.374Z,408.00
2022-09-07T12:32:54.874Z,480.00
2022-09-07T12:33:53.637Z,416.00
2022-09-07T12:34:53.640Z,428.00
2022-09-07T12:35:53.644Z,432.00
2022-09-07T12:36:53.669Z,412.00
2022-09-07T12:37:53.669Z,400.00
2022-09-07T12:38:53.650Z,388.00
2022-09-07T12:39:53.724Z,400.00
2022-09-07T12:40:53.654Z,432.00
2022-09-07T12:42:54.526Z,432.00
2022-09-07T12:43:53.662Z,432.00
2022-09-07T12:44:53.666Z,420.00
2022-09-07T12:45:53.698Z,468.00
2022-09-07T12:46:53.674Z,388.00
2022-09-07T12:47:53.680Z,360.00
2022-09-07T12:48:53.673Z,364.00
2022-09-07T12:49:53.682Z,376.00
2022-09-07T12:50:53.680Z,388.00
2022-09-07T12:52:05.209Z,348.00
2022-09-07T12:52:53.688Z,320.00
2022-09-07T12:53:57.551Z,272.00
2022-09-07T12:55:16.406Z,276.00
2022-09-07T12:57:53.701Z,308.00
2022-09-07T12:58:53.745Z,348.00
2022-09-07T12:59:53.709Z,392.00
2022-09-07T13:00:53.706Z,288.00
2022-09-07T13:01:53.789Z,292.00
2022-09-07T13:02:53.711Z,324.00
2022-09-07T13:03:53.713Z,368.00
2022-09-07T13:04:53.722Z,368.00
2022-09-07T13:05:53.723Z,372.00
2022-09-07T13:07:09.171Z,352.00
2022-09-07T13:07:59.364Z,344.00
2022-09-07T13:08:53.730Z,328.00
2022-09-07T13:09:53.751Z,316.00
2022-09-07T13:10:53.733Z,300.00
2022-09-07T13:11:53.734Z,284.00
2022-09-07T13:12:54.230Z,296.00
2022-09-07T13:14:02.938Z,316.00
2022-09-07T13:14:53.746Z,288.00
2022-09-07T13:15:53.772Z,296.00
2022-09-07T13:17:53.752Z,292.00
2022-09-07T13:18:53.799Z,316.00
2022-09-07T13:19:53.759Z,300.00
2022-09-07T13:20:53.769Z,268.00
2022-09-07T13:21:54.005Z,292.00
2022-09-07T13:22:53.771Z,264.00
2022-09-07T13:23:53.772Z,264.00
2022-09-07T13:24:54.021Z,256.00
2022-09-07T13:25:53.799Z,248.00
2022-09-07T13:26:53.782Z,292.00
2022-09-07T13:27:53.780Z,344.00
2022-09-07T13:28:54.818Z,248.00
2022-09-07T13:29:55.074Z,224.00